createdAt,value
2019-02-15T00:00:10.166Z,17.60
2019-02-15T00:01:10.155Z,17.79
2019-02-15T00:02:10.145Z,16.84
2019-02-15T00:03:10.136Z,16.74
2019-02-15T00:04:10.134Z,17.12
2019-02-15T00:05:10.118Z,16.55
2019-02-15T00:06:10.111Z,16.27
2019-02-15T00:07:10.103Z,16.84
2019-02-15T00:08:10.093Z,16.36
2019-02-15T00:09:10.083Z,16.46
2019-02-15T00:10:10.075Z,16.08
2019-02-15T00:11:10.067Z,15.89
2019-02-15T00:12:10.060Z,15.61
2019-02-15T00:13:13.681Z,14.85
2019-02-15T00:14:10.042Z,14.19
2019-02-15T00:15:10.034Z,14.19
2019-02-15T00:16:10.024Z,12.49
2019-02-15T00:17:10.015Z,12.58
2019-02-15T00:18:10.007Z,12.68
2019-02-15T00:19:09.999Z,13.53
2019-02-15T00:20:09.990Z,15.14
2019-02-15T00:21:09.981Z,16.55
2019-02-15T00:22:09.972Z,17.41
2019-02-15T00:23:09.964Z,19.68
2019-02-15T00:24:09.956Z,20.53
2019-02-15T00:25:09.950Z,20.90
2019-02-15T00:26:09.938Z,22.04
2019-02-15T00:27:09.930Z,22.42
2019-02-15T00:28:09.920Z,22.61
2019-02-15T00:29:09.915Z,21.95
2019-02-15T00:30:09.905Z,21.57
2019-02-15T00:31:09.895Z,20.81
2019-02-15T00:32:09.887Z,19.96
2019-02-15T00:33:09.878Z,19.87
2019-02-15T00:34:09.868Z,20.81
2019-02-15T00:35:09.862Z,19.96
2019-02-15T00:36:09.851Z,18.35
2019-02-15T00:37:09.842Z,17.88
2019-02-15T00:38:09.838Z,17.12
2019-02-15T00:39:09.826Z,16.84
2019-02-15T00:40:09.819Z,15.99
2019-02-15T00:41:09.807Z,15.99
2019-02-15T00:42:09.799Z,15.80
2019-02-15T00:43:09.790Z,14.76
2019-02-15T00:44:09.782Z,14.57
2019-02-15T00:45:09.773Z,14.38
2019-02-15T00:46:09.767Z,15.14
2019-02-15T00:47:09.755Z,14.28
2019-02-15T00:48:09.747Z,14.28
2019-02-15T00:49:09.737Z,14.47
2019-02-15T00:50:09.729Z,14.85
2019-02-15T00:51:09.720Z,15.33
2019-02-15T00:52:09.713Z,15.14
2019-02-15T00:53:09.702Z,14.19
2019-02-15T00:54:09.694Z,13.90
2019-02-15T00:55:09.685Z,14.19
2019-02-15T00:56:09.679Z,14.76
2019-02-15T00:57:09.668Z,14.47
2019-02-15T00:58:09.661Z,14.47
2019-02-15T00:59:09.650Z,14.95
2019-02-15T01:00:09.642Z,15.14
2019-02-15T01:01:09.632Z,15.14
2019-02-15T01:02:09.625Z,14.09
2019-02-15T01:03:09.616Z,13.24
2019-02-15T01:04:09.606Z,12.49
2019-02-15T01:05:09.596Z,12.96
2019-02-15T01:06:09.587Z,12.11
2019-02-15T01:07:09.579Z,11.63
2019-02-15T01:08:09.572Z,12.20
2019-02-15T01:09:09.561Z,11.82
2019-02-15T01:10:09.552Z,12.30
2019-02-15T01:11:09.544Z,12.01
2019-02-15T01:12:09.534Z,12.39
2019-02-15T01:13:09.526Z,12.20
2019-02-15T01:14:09.516Z,13.06
2019-02-15T01:15:09.508Z,14.00
2019-02-15T01:16:09.500Z,15.23
2019-02-15T01:17:09.490Z,17.50
2019-02-15T01:18:09.482Z,19.49
2019-02-15T01:19:09.474Z,20.90
2019-02-15T01:20:09.466Z,20.90
2019-02-15T01:21:09.454Z,21.38
2019-02-15T01:22:09.445Z,22.23
2019-02-15T01:23:09.442Z,21.47
2019-02-15T01:24:09.429Z,20.90
2019-02-15T01:25:09.420Z,21.00
2019-02-15T01:26:09.411Z,21.28
2019-02-15T01:27:09.402Z,22.71
2019-02-15T01:28:09.392Z,24.69
2019-02-15T01:29:09.383Z,26.11
2019-02-15T01:30:09.375Z,27.44
2019-02-15T01:31:09.367Z,27.72
2019-02-15T01:32:09.361Z,29.33
2019-02-15T01:33:09.348Z,29.52
2019-02-15T01:34:09.338Z,29.52
2019-02-15T01:35:09.330Z,28.76
2019-02-15T01:36:09.321Z,28.57
2019-02-15T01:37:09.314Z,28.19
2019-02-15T01:38:09.307Z,27.34
2019-02-15T01:39:09.294Z,26.49
2019-02-15T01:40:09.287Z,26.11
2019-02-15T01:41:09.277Z,25.63
2019-02-15T01:42:09.271Z,24.60
2019-02-15T01:43:09.261Z,24.31
2019-02-15T01:44:09.251Z,23.46
2019-02-15T01:45:09.240Z,23.65
2019-02-15T01:46:09.231Z,25.45
2019-02-15T01:47:09.226Z,26.49
2019-02-15T01:48:09.215Z,27.44
2019-02-15T01:49:09.209Z,28.95
2019-02-15T01:50:09.195Z,31.88
2019-02-15T01:51:09.188Z,34.06
2019-02-15T01:52:09.178Z,36.42
2019-02-15T01:53:09.169Z,37.55
2019-02-15T01:54:09.162Z,37.93
2019-02-15T01:55:09.152Z,38.50
2019-02-15T01:56:09.151Z,37.46
2019-02-15T01:57:09.132Z,35.76
2019-02-15T01:58:09.125Z,34.81
2019-02-15T01:59:09.115Z,34.25
2019-02-15T02:00:09.111Z,35.47
2019-02-15T02:01:09.098Z,37.37
2019-02-15T02:02:09.088Z,36.42
2019-02-15T02:03:09.080Z,36.42
2019-02-15T02:04:09.072Z,35.95
2019-02-15T02:05:09.062Z,35.85
2019-02-15T02:06:09.057Z,34.91
2019-02-15T02:07:09.045Z,33.77
2019-02-15T02:08:09.037Z,32.26
2019-02-15T02:09:09.026Z,31.79
2019-02-15T02:10:09.017Z,30.36
2019-02-15T02:11:09.009Z,30.27
2019-02-15T02:12:09.002Z,29.23
2019-02-15T02:13:08.993Z,28.95
2019-02-15T02:14:08.981Z,27.62
2019-02-15T02:15:08.973Z,27.15
2019-02-15T02:16:08.964Z,26.58
2019-02-15T02:17:08.955Z,26.39
2019-02-15T02:18:08.954Z,26.30
2019-02-15T02:19:08.937Z,26.01
2019-02-15T02:20:08.929Z,23.74
2019-02-15T02:21:08.922Z,22.78
2019-02-15T02:22:08.910Z,21.27
2019-02-15T02:23:08.902Z,19.76
2019-02-15T02:24:08.905Z,19.01
2019-02-15T02:25:08.882Z,18.63
2019-02-15T02:26:08.874Z,18.62
2019-02-15T02:27:08.864Z,18.53
2019-02-15T02:28:08.856Z,18.15
2019-02-15T02:29:08.846Z,17.58
2019-02-15T02:30:08.917Z,17.21
2019-02-15T02:31:08.830Z,17.21
2019-02-15T02:32:08.825Z,16.36
2019-02-15T02:33:08.809Z,16.17
2019-02-15T02:34:08.803Z,15.31
2019-02-15T02:35:08.796Z,15.31
2019-02-15T02:36:08.785Z,15.12
2019-02-15T02:37:08.774Z,14.75
2019-02-15T02:38:08.784Z,15.33
2019-02-15T02:39:08.756Z,18.26
2019-02-15T02:40:08.747Z,20.90
2019-02-15T02:41:08.738Z,21.28
2019-02-15T02:42:08.729Z,22.14
2019-02-15T02:43:08.720Z,23.36
2019-02-15T02:44:08.712Z,25.07
2019-02-15T02:45:08.705Z,25.26
2019-02-15T02:46:08.692Z,25.07
2019-02-15T02:47:08.686Z,24.98
2019-02-15T02:48:08.676Z,25.73
2019-02-15T02:49:08.669Z,26.39
2019-02-15T02:50:08.661Z,25.54
2019-02-15T02:51:08.647Z,24.69
2019-02-15T02:52:08.639Z,25.45
2019-02-15T02:53:08.628Z,24.69
2019-02-15T02:54:08.625Z,23.65
2019-02-15T02:55:08.611Z,23.84
2019-02-15T02:56:08.603Z,23.27
2019-02-15T02:57:08.592Z,23.84
2019-02-15T02:58:08.582Z,24.49
2019-02-15T02:59:08.574Z,23.45
2019-02-15T03:00:08.566Z,22.50
2019-02-15T03:01:08.555Z,21.84
2019-02-15T03:02:08.546Z,21.18
2019-02-15T03:03:08.536Z,21.46
2019-02-15T03:04:08.528Z,21.27
2019-02-15T03:05:08.519Z,21.27
2019-02-15T03:06:08.510Z,20.51
2019-02-15T03:07:08.500Z,20.23
2019-02-15T03:08:08.493Z,20.42
2019-02-15T03:09:08.481Z,19.85
2019-02-15T03:10:08.472Z,19.85
2019-02-15T03:11:08.465Z,19.57
2019-02-15T03:12:08.466Z,19.10
2019-02-15T03:13:08.446Z,18.34
2019-02-15T03:14:11.325Z,18.34
2019-02-15T03:15:08.431Z,18.06
2019-02-15T03:16:08.420Z,17.30
2019-02-15T03:17:08.411Z,16.83
2019-02-15T03:18:08.399Z,15.98
2019-02-15T03:19:08.391Z,15.12
2019-02-15T03:20:08.381Z,15.22
2019-02-15T03:21:08.373Z,14.28
2019-02-15T03:22:08.366Z,14.28
2019-02-15T03:23:08.361Z,13.23
2019-02-15T03:24:08.347Z,12.19
2019-02-15T03:25:08.350Z,11.82
2019-02-15T03:26:08.343Z,11.25
2019-02-15T03:27:08.335Z,11.63
2019-02-15T03:28:08.316Z,11.54
2019-02-15T03:29:08.298Z,11.35
2019-02-15T03:30:08.290Z,12.57
2019-02-15T03:31:08.282Z,12.57
2019-02-15T03:32:08.271Z,12.01
2019-02-15T03:33:08.269Z,11.63
2019-02-15T03:34:08.258Z,11.91
2019-02-15T03:35:08.245Z,12.57
2019-02-15T03:36:08.234Z,13.14
2019-02-15T03:37:08.225Z,13.61
2019-02-15T03:38:08.215Z,13.23
2019-02-15T03:39:08.207Z,12.19
2019-02-15T03:40:08.269Z,11.63
2019-02-15T03:41:08.209Z,10.59
2019-02-15T03:42:08.178Z,10.21
2019-02-15T03:43:08.189Z,11.35
2019-02-15T03:44:08.162Z,12.38
2019-02-15T03:45:08.150Z,14.37
2019-02-15T03:46:08.142Z,14.47
2019-02-15T03:47:08.140Z,16.74
2019-02-15T03:48:08.149Z,20.90
2019-02-15T03:49:08.114Z,23.46
2019-02-15T03:50:08.106Z,25.54
2019-02-15T03:51:08.102Z,26.20
2019-02-15T03:52:08.086Z,26.39
2019-02-15T03:53:08.080Z,25.82
2019-02-15T03:54:08.069Z,24.60
2019-02-15T03:55:08.058Z,22.89
2019-02-15T03:56:08.049Z,23.46
2019-02-15T03:57:08.040Z,22.33
2019-02-15T03:58:08.038Z,22.03
2019-02-15T03:59:08.026Z,20.99
2019-02-15T04:00:08.012Z,19.85
2019-02-15T04:01:08.001Z,19.29
2019-02-15T04:02:07.993Z,18.34
2019-02-15T04:03:07.985Z,16.83
2019-02-15T04:04:07.975Z,16.26
2019-02-15T04:05:07.964Z,15.50
2019-02-15T04:06:07.957Z,15.31
2019-02-15T04:07:07.947Z,13.42
2019-02-15T04:08:07.938Z,12.66
2019-02-15T04:09:07.929Z,14.37
2019-02-15T04:10:07.919Z,14.94
2019-02-15T04:11:07.909Z,15.03
2019-02-15T04:12:07.901Z,16.45
2019-02-15T04:13:07.890Z,17.50
2019-02-15T04:14:07.884Z,18.54
2019-02-15T04:15:07.877Z,19.49
2019-02-15T04:16:07.866Z,21.47
2019-02-15T04:17:07.852Z,23.18
2019-02-15T04:18:07.843Z,24.98
2019-02-15T04:19:07.876Z,26.20
2019-02-15T04:20:07.826Z,26.49
2019-02-15T04:21:07.818Z,26.58
2019-02-15T04:22:07.806Z,27.25
2019-02-15T04:23:07.797Z,26.68
2019-02-15T04:24:07.790Z,27.06
2019-02-15T04:25:07.781Z,27.15
2019-02-15T04:26:07.769Z,27.25
2019-02-15T04:27:07.762Z,27.06
2019-02-15T04:28:07.751Z,27.53
2019-02-15T04:29:07.744Z,27.44
2019-02-15T04:30:07.734Z,26.30
2019-02-15T04:31:07.723Z,25.73
2019-02-15T04:32:07.715Z,25.63
2019-02-15T04:33:07.703Z,25.26
2019-02-15T04:34:07.696Z,24.58
2019-02-15T04:35:07.697Z,23.92
2019-02-15T04:36:07.676Z,22.13
2019-02-15T04:37:07.666Z,21.08
2019-02-15T04:38:07.657Z,19.85
2019-02-15T04:39:07.649Z,18.43
2019-02-15T04:40:07.640Z,17.40
2019-02-15T04:41:07.630Z,16.55
2019-02-15T04:42:07.620Z,15.22
2019-02-15T04:43:07.652Z,13.99
2019-02-15T04:44:07.602Z,13.52
2019-02-15T04:45:07.616Z,13.61
2019-02-15T04:46:07.583Z,13.52
2019-02-15T04:47:07.573Z,12.38
2019-02-15T04:48:07.564Z,11.35
2019-02-15T04:49:07.553Z,10.68
2019-02-15T04:50:07.547Z,10.78
2019-02-15T04:51:07.537Z,11.06
2019-02-15T04:52:07.541Z,10.59
2019-02-15T04:53:07.517Z,10.02
2019-02-15T04:54:07.508Z,9.36
2019-02-15T04:55:07.504Z,9.45
2019-02-15T04:56:07.496Z,9.17
2019-02-15T04:57:07.480Z,8.51
2019-02-15T04:58:07.469Z,8.32
2019-02-15T04:59:07.463Z,8.22
2019-02-15T05:00:07.451Z,7.56
2019-02-15T05:01:07.445Z,7.28
2019-02-15T05:02:07.432Z,8.03
2019-02-15T05:03:07.423Z,7.37
2019-02-15T05:04:07.414Z,6.71
2019-02-15T05:05:07.406Z,7.28
2019-02-15T05:06:07.394Z,6.71
2019-02-15T05:07:07.386Z,6.24
2019-02-15T05:08:07.375Z,6.24
2019-02-15T05:09:07.367Z,6.33
2019-02-15T05:10:07.356Z,6.24
2019-02-15T05:11:07.347Z,6.33
2019-02-15T05:12:07.337Z,6.33
2019-02-15T05:13:07.329Z,6.81
2019-02-15T05:14:07.326Z,6.05
2019-02-15T05:15:07.321Z,6.14
2019-02-15T05:16:07.299Z,6.52
2019-02-15T05:17:07.294Z,6.24
2019-02-15T05:18:07.281Z,5.96
2019-02-15T05:19:07.275Z,5.77
2019-02-15T05:20:07.263Z,5.10
2019-02-15T05:21:07.261Z,5.39
2019-02-15T05:22:07.243Z,5.67
2019-02-15T05:23:07.233Z,6.14
2019-02-15T05:24:07.224Z,5.67
2019-02-15T05:25:07.218Z,5.39
2019-02-15T05:26:07.209Z,6.05
2019-02-15T05:27:07.195Z,5.77
2019-02-15T05:28:08.937Z,6.24
2019-02-15T05:29:07.177Z,5.96
2019-02-15T05:30:07.169Z,5.96
2019-02-15T05:31:07.156Z,5.01
2019-02-15T05:32:07.149Z,4.72
2019-02-15T05:33:07.137Z,5.10
2019-02-15T05:34:07.128Z,5.58
2019-02-15T05:35:07.121Z,6.05
2019-02-15T05:36:07.111Z,5.86
2019-02-15T05:37:07.099Z,6.05
2019-02-15T05:38:07.089Z,6.05
2019-02-15T05:39:07.081Z,6.05
2019-02-15T05:40:07.071Z,6.52
2019-02-15T05:41:07.063Z,6.99
2019-02-15T05:42:07.052Z,7.56
2019-02-15T05:43:07.043Z,8.32
2019-02-15T05:44:07.039Z,9.17
2019-02-15T05:45:07.023Z,9.45
2019-02-15T05:46:07.016Z,9.64
2019-02-15T05:47:07.005Z,9.74
2019-02-15T05:48:06.994Z,10.68
2019-02-15T05:49:06.984Z,11.25
2019-02-15T05:50:06.976Z,11.16
2019-02-15T05:51:06.965Z,10.59
2019-02-15T05:52:06.955Z,10.78
2019-02-15T05:53:06.945Z,10.97
2019-02-15T05:54:06.935Z,11.16
2019-02-15T05:55:06.938Z,11.16
2019-02-15T05:56:06.920Z,11.82
2019-02-15T05:57:06.916Z,12.57
2019-02-15T05:58:06.898Z,12.19
2019-02-15T05:59:06.887Z,11.35
2019-02-15T06:00:06.896Z,11.16
2019-02-15T06:01:06.905Z,11.35
2019-02-15T06:02:06.860Z,10.21
2019-02-15T06:03:06.849Z,10.30
2019-02-15T06:04:06.840Z,10.40
2019-02-15T06:05:06.831Z,9.83
2019-02-15T06:06:06.821Z,9.92
2019-02-15T06:07:06.812Z,10.02
2019-02-15T06:08:06.804Z,10.40
2019-02-15T06:09:06.793Z,10.02
2019-02-15T06:10:06.783Z,10.59
2019-02-15T06:11:08.287Z,10.78
2019-02-15T06:12:06.765Z,11.44
2019-02-15T06:13:06.753Z,11.25
2019-02-15T06:14:06.745Z,12.76
2019-02-15T06:15:14.837Z,13.23
2019-02-15T06:16:06.729Z,12.48
2019-02-15T06:17:06.715Z,12.66
2019-02-15T06:18:06.705Z,14.37
2019-02-15T06:19:06.703Z,15.69
2019-02-15T06:20:06.688Z,17.49
2019-02-15T06:21:06.677Z,18.24
2019-02-15T06:22:06.669Z,20.32
2019-02-15T06:23:06.665Z,20.14
2019-02-15T06:24:06.653Z,20.70
2019-02-15T06:25:06.641Z,22.13
2019-02-15T06:26:06.628Z,24.12
2019-02-15T06:27:06.619Z,25.82
2019-02-15T06:28:06.614Z,27.89
2019-02-15T06:29:06.607Z,27.51
2019-02-15T06:30:06.605Z,27.44
2019-02-15T06:31:06.581Z,27.44
2019-02-15T06:32:06.571Z,26.66
2019-02-15T06:33:06.563Z,26.38
2019-02-15T06:34:06.553Z,27.14
2019-02-15T06:35:06.543Z,25.73
2019-02-15T06:36:06.533Z,24.39
2019-02-15T06:37:06.523Z,24.68
2019-02-15T06:38:06.513Z,24.68
2019-02-15T06:39:06.504Z,23.83
2019-02-15T06:40:06.494Z,23.64
2019-02-15T06:41:06.488Z,22.69
2019-02-15T06:42:06.475Z,21.37
2019-02-15T06:43:06.470Z,21.27
2019-02-15T06:44:06.457Z,21.27
2019-02-15T06:45:06.447Z,21.56
2019-02-15T06:46:06.438Z,21.56
2019-02-15T06:47:06.435Z,22.78
2019-02-15T06:48:06.421Z,23.45
2019-02-15T06:49:06.409Z,22.41
2019-02-15T06:50:06.443Z,22.50
2019-02-15T06:51:06.390Z,21.08
2019-02-15T06:52:06.382Z,21.27
2019-02-15T06:53:06.389Z,21.27
2019-02-15T06:54:06.362Z,21.37
2019-02-15T06:55:06.352Z,20.70
2019-02-15T06:56:06.344Z,21.08
2019-02-15T06:57:06.334Z,19.29
2019-02-15T06:58:06.324Z,17.49
2019-02-15T06:59:06.319Z,15.60
2019-02-15T07:00:06.305Z,14.94
2019-02-15T07:01:06.294Z,14.56
2019-02-15T07:02:06.287Z,14.28
2019-02-15T07:03:06.276Z,13.04
2019-02-15T07:04:06.284Z,13.14
2019-02-15T07:05:06.259Z,12.57
2019-02-15T07:06:06.249Z,13.14
2019-02-15T07:07:06.240Z,14.09
2019-02-15T07:08:06.231Z,14.56
2019-02-15T07:09:06.220Z,15.12
2019-02-15T07:10:06.211Z,14.47
2019-02-15T07:11:06.200Z,13.04
2019-02-15T07:12:06.192Z,12.57
2019-02-15T07:13:06.183Z,13.33
2019-02-15T07:14:06.181Z,13.42
2019-02-15T07:15:06.164Z,14.18
2019-02-15T07:16:06.155Z,14.37
2019-02-15T07:17:06.169Z,14.37
2019-02-15T07:18:06.137Z,14.09
2019-02-15T07:19:06.124Z,14.09
2019-02-15T07:20:06.117Z,13.99
2019-02-15T07:21:06.106Z,13.14
2019-02-15T07:22:06.097Z,12.66
2019-02-15T07:23:06.087Z,13.14
2019-02-15T07:24:06.080Z,13.23
2019-02-15T07:25:06.069Z,14.65
2019-02-15T07:26:06.058Z,14.76
2019-02-15T07:27:06.048Z,13.80
2019-02-15T07:28:06.039Z,14.09
2019-02-15T07:29:06.030Z,15.14
2019-02-15T07:30:06.021Z,15.52
2019-02-15T07:31:06.013Z,16.84
2019-02-15T07:32:06.003Z,16.08
2019-02-15T07:33:05.992Z,16.55
2019-02-15T07:34:05.983Z,16.27
2019-02-15T07:35:05.974Z,16.84
2019-02-15T07:36:05.966Z,17.12
2019-02-15T07:37:05.955Z,19.30
2019-02-15T07:38:05.946Z,20.06
2019-02-15T07:39:05.938Z,21.47
2019-02-15T07:40:05.927Z,23.74
2019-02-15T07:41:05.924Z,23.74
2019-02-15T07:42:05.913Z,25.82
2019-02-15T07:43:05.912Z,26.30
2019-02-15T07:44:05.889Z,31.23
2019-02-15T07:45:05.879Z,35.30
2019-02-15T07:46:05.871Z,38.43
2019-02-15T07:47:05.862Z,41.55
2019-02-15T07:48:05.853Z,40.60
2019-02-15T07:49:05.843Z,41.17
2019-02-15T07:50:05.833Z,43.63
2019-02-15T07:51:09.606Z,45.24
2019-02-15T07:52:05.816Z,45.81
2019-02-15T07:53:05.805Z,46.85
2019-02-15T07:54:05.804Z,47.99
2019-02-15T07:55:05.789Z,47.16
2019-02-15T07:56:05.779Z,47.72
2019-02-15T07:57:05.769Z,49.15
2019-02-15T07:58:05.761Z,50.38
2019-02-15T07:59:05.750Z,51.14
2019-02-15T08:00:05.747Z,52.18
2019-02-15T08:01:05.733Z,55.58
2019-02-15T08:02:05.728Z,57.57
2019-02-15T08:03:05.719Z,59.09
2019-02-15T08:04:06.858Z,59.94
2019-02-15T08:05:05.697Z,60.80
2019-02-15T08:06:05.690Z,62.40
2019-02-15T08:07:05.680Z,64.68
2019-02-15T08:08:05.673Z,66.41
2019-02-15T08:09:05.662Z,67.36
2019-02-15T08:10:05.654Z,69.07
2019-02-15T08:11:05.645Z,70.58
2019-02-15T08:12:05.637Z,72.19
2019-02-15T08:13:05.656Z,72.00
2019-02-15T08:14:14.345Z,73.43
2019-02-15T08:15:05.611Z,73.90
2019-02-15T08:16:05.602Z,75.79
2019-02-15T08:17:05.593Z,76.03
2019-02-15T08:18:05.586Z,78.11
2019-02-15T08:19:05.578Z,75.26
2019-02-15T08:20:05.569Z,74.79
2019-02-15T08:21:05.562Z,78.30
2019-02-15T08:22:05.554Z,77.92
2019-02-15T08:23:05.547Z,84.27
2019-02-15T08:24:05.536Z,86.97
2019-02-15T08:25:05.526Z,87.16
2019-02-15T08:26:05.523Z,85.83
2019-02-15T08:27:05.514Z,85.36
2019-02-15T08:28:05.504Z,83.65
2019-02-15T08:29:05.495Z,84.22
2019-02-15T08:30:05.487Z,84.69
2019-02-15T08:31:05.480Z,84.41
2019-02-15T08:32:05.471Z,88.29
2019-02-15T08:33:05.465Z,85.45
2019-02-15T08:34:05.455Z,84.41
2019-02-15T08:35:05.447Z,84.50
2019-02-15T08:36:05.441Z,86.30
2019-02-15T08:37:05.431Z,89.62
2019-02-15T08:38:05.423Z,88.15
2019-02-15T08:39:05.417Z,86.25
2019-02-15T08:40:05.411Z,88.34
2019-02-15T08:41:05.406Z,90.90
2019-02-15T08:42:05.395Z,85.21
2019-02-15T08:43:05.386Z,83.78
2019-02-15T08:44:05.378Z,84.83
2019-02-15T08:45:05.371Z,81.04
2019-02-15T08:46:05.374Z,82.55
2019-02-15T08:47:05.355Z,84.92
2019-02-15T08:48:05.388Z,82.46
2019-02-15T08:49:05.362Z,80.84
2019-02-15T08:50:05.334Z,82.74
2019-02-15T08:51:05.327Z,83.22
2019-02-15T08:52:05.321Z,80.75
2019-02-15T08:53:05.323Z,78.38
2019-02-15T08:54:05.309Z,80.65
2019-02-15T08:55:05.297Z,83.36
2019-02-15T08:56:05.290Z,84.30
2019-02-15T08:57:05.283Z,83.64
2019-02-15T08:58:05.276Z,82.21
2019-02-15T08:59:05.271Z,82.88
2019-02-15T09:00:05.262Z,84.59
2019-02-15T09:01:05.275Z,87.34
2019-02-15T09:02:05.250Z,93.04
2019-02-15T09:03:05.241Z,93.04
2019-02-15T09:04:05.235Z,93.51
2019-02-15T09:05:05.227Z,93.94
2019-02-15T09:06:05.221Z,94.23
2019-02-15T09:07:05.214Z,94.13
2019-02-15T09:08:05.210Z,93.37
2019-02-15T09:09:05.200Z,94.13
2019-02-15T09:10:05.192Z,92.99
2019-02-15T09:11:05.185Z,93.18
2019-02-15T09:12:05.179Z,93.79
2019-02-15T09:13:05.174Z,92.80
2019-02-15T09:14:05.164Z,91.94
2019-02-15T09:15:05.161Z,92.66
2019-02-15T09:16:10.417Z,92.27
2019-02-15T09:17:05.144Z,93.13
2019-02-15T09:18:05.141Z,93.51
2019-02-15T09:19:05.131Z,92.46
2019-02-15T09:20:05.126Z,91.42
2019-02-15T09:21:05.125Z,91.33
2019-02-15T09:22:05.112Z,91.33
2019-02-15T09:23:05.105Z,93.60
2019-02-15T09:24:05.099Z,91.89
2019-02-15T09:25:05.090Z,93.60
2019-02-15T09:26:05.092Z,92.66
2019-02-15T09:27:05.082Z,92.85
2019-02-15T09:28:05.073Z,93.04
2019-02-15T09:29:05.066Z,92.37
2019-02-15T09:30:05.059Z,92.66
2019-02-15T09:31:05.054Z,91.42
2019-02-15T09:32:05.049Z,92.56
2019-02-15T09:33:05.040Z,92.61
2019-02-15T09:34:05.033Z,92.85
2019-02-15T09:35:05.028Z,92.32
2019-02-15T09:36:05.022Z,92.32
2019-02-15T09:37:05.014Z,92.32
2019-02-15T09:38:05.009Z,92.03
2019-02-15T09:39:05.005Z,91.85
2019-02-15T09:40:04.998Z,90.89
2019-02-15T09:41:04.990Z,90.14
2019-02-15T09:42:04.984Z,90.14
2019-02-15T09:43:04.977Z,89.80
2019-02-15T09:44:04.972Z,89.51
2019-02-15T09:45:04.965Z,89.04
2019-02-15T09:46:04.959Z,89.04
2019-02-15T09:47:04.955Z,88.94
2019-02-15T09:48:04.947Z,88.66
2019-02-15T09:49:04.942Z,89.04
2019-02-15T09:50:04.935Z,88.37
2019-02-15T09:51:04.929Z,88.46
2019-02-15T09:52:04.929Z,88.94
2019-02-15T09:53:04.918Z,88.85
2019-02-15T09:54:04.912Z,88.04
2019-02-15T09:55:04.906Z,87.75
2019-02-15T09:56:04.901Z,87.18
2019-02-15T09:57:04.894Z,87.04
2019-02-15T09:58:04.888Z,86.85
2019-02-15T09:59:04.895Z,87.85
2019-02-15T10:00:04.877Z,88.04
2019-02-15T10:01:04.870Z,87.94
2019-02-15T10:02:04.866Z,88.70
2019-02-15T10:03:04.862Z,88.32
2019-02-15T10:04:04.861Z,87.56
2019-02-15T10:05:04.848Z,88.32
2019-02-15T10:06:04.842Z,87.41
2019-02-15T10:07:04.838Z,86.41
2019-02-15T10:08:04.834Z,85.12
2019-02-15T10:09:04.828Z,79.80
2019-02-15T10:10:04.823Z,73.77
2019-02-15T10:11:04.818Z,70.46
2019-02-15T10:12:04.814Z,66.25
2019-02-15T10:13:04.809Z,64.85
2019-02-15T10:14:04.806Z,62.94
2019-02-15T10:15:04.803Z,62.17
2019-02-15T10:16:04.800Z,61.47
2019-02-15T10:17:04.800Z,59.72
2019-02-15T10:18:04.796Z,60.64
2019-02-15T10:19:04.795Z,61.05
2019-02-15T10:20:04.795Z,60.96
2019-02-15T10:21:04.793Z,61.18
2019-02-15T10:22:04.793Z,58.69
2019-02-15T10:23:04.794Z,58.24
2019-02-15T10:24:04.796Z,57.57
2019-02-15T10:25:04.794Z,56.77
2019-02-15T10:26:04.797Z,58.47
2019-02-15T10:27:04.798Z,59.55
2019-02-15T10:28:04.801Z,58.98
2019-02-15T10:29:04.801Z,59.11
2019-02-15T10:30:04.805Z,57.86
2019-02-15T10:31:04.810Z,57.83
2019-02-15T10:32:04.811Z,58.79
2019-02-15T10:33:04.814Z,58.31
2019-02-15T10:34:04.818Z,59.30
2019-02-15T10:35:04.820Z,57.95
2019-02-15T10:36:04.828Z,56.54
2019-02-15T10:37:04.829Z,55.97
2019-02-15T10:38:04.832Z,55.87
2019-02-15T10:39:04.836Z,55.93
2019-02-15T10:40:04.841Z,53.94
2019-02-15T10:41:04.846Z,52.34
2019-02-15T10:42:04.852Z,51.95
2019-02-15T10:43:04.856Z,50.90
2019-02-15T10:44:04.860Z,50.08
2019-02-15T10:45:04.868Z,51.49
2019-02-15T10:46:04.870Z,52.91
2019-02-15T10:47:13.661Z,54.34
2019-02-15T10:48:04.885Z,53.44
2019-02-15T10:49:04.889Z,52.50
2019-02-15T10:50:05.215Z,51.64
2019-02-15T10:51:04.897Z,53.20
2019-02-15T10:52:04.904Z,52.08
2019-02-15T10:53:04.909Z,51.50
2019-02-15T10:54:04.915Z,52.75
2019-02-15T10:55:04.922Z,52.77
2019-02-15T10:56:04.929Z,51.55
2019-02-15T10:57:04.934Z,49.79
2019-02-15T10:58:04.941Z,48.71
2019-02-15T10:59:04.945Z,50.05
2019-02-15T11:00:04.955Z,49.57
2019-02-15T11:01:04.958Z,50.05
2019-02-15T11:02:04.964Z,51.02
2019-02-15T11:03:04.975Z,51.88
2019-02-15T11:04:04.978Z,51.28
2019-02-15T11:05:04.982Z,51.54
2019-02-15T11:06:04.990Z,52.00
2019-02-15T11:07:04.997Z,52.57
2019-02-15T11:08:05.003Z,53.86
2019-02-15T11:09:05.009Z,55.40
2019-02-15T11:10:05.014Z,55.68
2019-02-15T11:11:05.020Z,55.30
2019-02-15T11:12:05.027Z,55.68
2019-02-15T11:13:05.032Z,55.49
2019-02-15T11:14:05.041Z,55.75
2019-02-15T11:15:05.045Z,57.38
2019-02-15T11:16:05.049Z,58.81
2019-02-15T11:17:05.055Z,58.34
2019-02-15T11:18:05.062Z,58.24
2019-02-15T11:19:05.066Z,57.57
2019-02-15T11:20:05.071Z,58.79
2019-02-15T11:21:05.082Z,61.15
2019-02-15T11:22:05.081Z,60.80
2019-02-15T11:23:05.087Z,60.03
2019-02-15T11:24:05.091Z,59.65
2019-02-15T11:25:05.095Z,60.03
2019-02-15T11:26:05.101Z,60.32
2019-02-15T11:27:05.105Z,60.89
2019-02-15T11:28:05.110Z,60.83
2019-02-15T11:29:05.113Z,60.06
2019-02-15T11:30:05.117Z,59.58
2019-02-15T11:31:05.126Z,59.30
2019-02-15T11:32:05.127Z,59.45
2019-02-15T11:33:05.136Z,59.65
2019-02-15T11:34:05.132Z,61.37
2019-02-15T11:35:05.138Z,62.68
2019-02-15T11:36:05.142Z,63.42
2019-02-15T11:37:05.146Z,65.14
2019-02-15T11:38:05.149Z,65.33
2019-02-15T11:39:05.151Z,65.33
2019-02-15T11:40:05.154Z,65.81
2019-02-15T11:41:10.898Z,65.52
2019-02-15T11:42:05.161Z,65.23
2019-02-15T11:43:05.163Z,65.14
2019-02-15T11:44:05.168Z,65.71
2019-02-15T11:45:05.168Z,65.36
2019-02-15T11:46:05.172Z,65.17
2019-02-15T11:47:05.197Z,65.01
2019-02-15T11:48:05.176Z,64.63
2019-02-15T11:49:05.177Z,64.15
2019-02-15T11:50:05.182Z,63.48
2019-02-15T11:51:05.182Z,63.35
2019-02-15T11:52:05.185Z,64.59
2019-02-15T11:53:05.190Z,65.23
2019-02-15T11:54:05.190Z,65.87
2019-02-15T11:55:05.195Z,66.67
2019-02-15T11:56:05.194Z,66.86
2019-02-15T11:57:05.194Z,67.14
2019-02-15T11:58:05.196Z,66.76
2019-02-15T11:59:05.198Z,67.30
2019-02-15T12:00:13.596Z,67.97
2019-02-15T12:01:05.202Z,68.55
2019-02-15T12:02:06.539Z,68.93
2019-02-15T12:03:05.208Z,69.41
2019-02-15T12:04:05.212Z,70.27
2019-02-15T12:05:05.207Z,71.03
2019-02-15T12:06:05.211Z,71.22
2019-02-15T12:07:05.208Z,71.03
2019-02-15T12:08:05.210Z,72.08
2019-02-15T12:09:05.210Z,72.08
2019-02-15T12:10:05.221Z,71.51
2019-02-15T12:11:05.211Z,71.51
2019-02-15T12:12:10.651Z,71.70
2019-02-15T12:13:05.217Z,71.89
2019-02-15T12:14:05.211Z,73.23
2019-02-15T12:15:05.257Z,73.14
2019-02-15T12:16:05.214Z,72.47
2019-02-15T12:17:05.910Z,73.14
2019-02-15T12:18:05.214Z,74.48
2019-02-15T12:19:05.216Z,73.90
2019-02-15T12:20:05.211Z,73.04
2019-02-15T12:21:05.210Z,72.37
2019-02-15T12:22:05.212Z,72.75
2019-02-15T12:23:05.210Z,72.85
2019-02-15T12:24:05.211Z,73.33
2019-02-15T12:25:05.209Z,73.14
2019-02-15T12:26:05.209Z,73.14
2019-02-15T12:27:05.210Z,73.84
2019-02-15T12:28:05.208Z,73.33
2019-02-15T12:29:05.207Z,73.36
2019-02-15T12:30:05.206Z,73.65
2019-02-15T12:31:05.208Z,72.79
2019-02-15T12:32:05.205Z,72.31
2019-02-15T12:33:05.206Z,72.41
2019-02-15T12:34:07.265Z,73.75
2019-02-15T12:35:05.202Z,73.84
2019-02-15T12:36:05.202Z,74.22
2019-02-15T12:37:05.200Z,73.75
2019-02-15T12:38:05.200Z,73.59
2019-02-15T12:39:05.200Z,72.41
2019-02-15T12:40:05.198Z,72.34
2019-02-15T12:41:05.200Z,71.73
2019-02-15T12:42:05.197Z,71.64
2019-02-15T12:43:05.200Z,72.22
2019-02-15T12:44:05.201Z,72.69
2019-02-15T12:45:05.194Z,73.27
2019-02-15T12:46:05.193Z,72.60
2019-02-15T12:47:05.192Z,72.12
2019-02-15T12:48:05.194Z,72.60
2019-02-15T12:49:05.189Z,74.41
2019-02-15T12:50:05.189Z,73.36
2019-02-15T12:51:05.189Z,72.69
2019-02-15T12:52:05.215Z,72.69
2019-02-15T12:53:05.184Z,73.88
2019-02-15T12:54:05.185Z,74.22